Terminal Aerodrome Forecast
Issued by NWS Cleveland, OH

Home | Current Version | Previous Version | Graphics & Text | Print | Product List | Glossary On
Versions: 1 2 3 4 5 6 7 8 9 10 11 12 13 14 15 16 17 18 19 20 21 22 23 24 25
534
FTUS41 KCLE 162338
TAFERI
TAF
KERI 162338Z 1700/1724 VRB03KT P6SM SCT025 OVC050
     FM170300 12004KT 6SM BR VCSH SCT015 OVC025
     FM170700 14010KT 4SM -RA BR BKN007 OVC012
     FM171600 18012KT 2SM -RA BR OVC005
     FM172100 24010G20KT 4SM BR VCSH OVC005=

USA.gov is the U.S. government's official web portal to all federal, state and local government web resources and services.